createdAt,value
2023-02-14T00:02:12.440Z,5.17
2023-02-14T00:04:46.958Z,5.47
2023-02-14T00:07:19.679Z,5.10
2023-02-14T00:09:52.456Z,5.00
2023-02-14T00:12:25.249Z,4.70
2023-02-14T00:15:17.041Z,4.20
2023-02-14T00:17:59.330Z,5.07
2023-02-14T00:20:32.346Z,3.83
2023-02-14T00:23:05.234Z,4.77
2023-02-14T00:25:38.211Z,4.70
2023-02-14T00:28:11.147Z,4.67
2023-02-14T00:30:44.591Z,4.07
2023-02-14T00:33:17.563Z,4.50
2023-02-14T00:35:51.779Z,4.60
2023-02-14T00:38:24.733Z,4.37
2023-02-14T00:40:58.019Z,4.30
2023-02-14T00:43:31.390Z,4.10
2023-02-14T00:46:04.398Z,4.07
2023-02-14T00:48:37.406Z,4.20
2023-02-14T00:51:10.890Z,5.07
2023-02-14T00:53:43.774Z,5.10
2023-02-14T00:56:18.220Z,5.20
2023-02-14T00:58:51.209Z,5.83
2023-02-14T01:01:24.368Z,5.30
2023-02-14T01:03:58.826Z,5.70
2023-02-14T01:06:32.027Z,6.63
2023-02-14T01:09:05.341Z,6.73
2023-02-14T01:11:39.399Z,7.03
2023-02-14T01:14:12.444Z,6.03
2023-02-14T01:16:45.574Z,6.03
2023-02-14T01:19:18.653Z,5.80
2023-02-14T01:21:51.608Z,6.17
2023-02-14T01:24:26.226Z,6.17
2023-02-14T01:26:59.192Z,6.53
2023-02-14T01:29:32.123Z,6.40
2023-02-14T01:32:05.168Z,5.37
2023-02-14T01:34:38.179Z,5.83
2023-02-14T01:37:11.832Z,5.60
2023-02-14T01:39:44.911Z,5.93
2023-02-14T01:42:20.519Z,4.93
2023-02-14T01:44:58.408Z,6.23
2023-02-14T01:47:33.857Z,5.60
2023-02-14T01:50:19.342Z,4.67
2023-02-14T01:53:00.811Z,4.87
2023-02-14T01:55:37.438Z,4.10
2023-02-14T01:58:12.271Z,6.70
2023-02-14T02:00:57.504Z,5.40
2023-02-14T02:03:34.091Z,5.83
2023-02-14T02:06:20.480Z,4.30
2023-02-14T02:09:12.701Z,4.43
2023-02-14T02:11:45.770Z,3.60
2023-02-14T02:14:23.198Z,4.13
2023-02-14T02:17:14.869Z,4.20
2023-02-14T02:19:48.939Z,4.53
2023-02-14T02:22:40.811Z,3.77
2023-02-14T02:25:20.775Z,3.90
2023-02-14T02:27:59.662Z,3.83
2023-02-14T02:30:51.486Z,4.40
2023-02-14T02:33:24.394Z,4.20
2023-02-14T02:35:57.490Z,4.23
2023-02-14T02:38:39.375Z,3.80
2023-02-14T02:41:18.452Z,4.20
2023-02-14T02:43:57.668Z,4.47
2023-02-14T02:46:47.292Z,3.30
2023-02-14T02:49:54.822Z,4.43
2023-02-14T02:52:46.405Z,3.57
2023-02-14T02:55:23.712Z,4.07
2023-02-14T02:57:58.492Z,4.27
2023-02-14T03:00:31.864Z,5.07
2023-02-14T03:03:24.126Z,4.23
2023-02-14T03:05:57.947Z,4.80
2023-02-14T03:08:30.907Z,4.00
2023-02-14T03:11:05.507Z,4.03
2023-02-14T03:13:53.704Z,4.73
2023-02-14T03:16:26.722Z,3.80
2023-02-14T03:19:29.403Z,3.50
2023-02-14T03:22:08.330Z,3.37
2023-02-14T03:24:47.389Z,3.47
2023-02-14T03:27:29.413Z,4.77
2023-02-14T03:30:13.664Z,4.00
2023-02-14T03:32:59.348Z,4.50
2023-02-14T03:35:35.351Z,3.93
2023-02-14T03:38:08.332Z,4.33
2023-02-14T03:40:46.104Z,3.80
2023-02-14T03:43:26.770Z,4.30
2023-02-14T03:46:04.917Z,4.03
2023-02-14T03:48:38.869Z,4.63
2023-02-14T03:51:13.119Z,4.10
2023-02-14T03:53:48.355Z,3.67
2023-02-14T03:56:31.146Z,3.30
2023-02-14T03:59:09.556Z,3.70
2023-02-14T04:01:52.123Z,3.60
2023-02-14T04:04:26.898Z,4.10
2023-02-14T04:06:59.833Z,4.50
2023-02-14T04:09:32.739Z,4.37
2023-02-14T04:12:05.703Z,4.70
2023-02-14T04:14:38.921Z,4.27
2023-02-14T04:17:30.752Z,5.47
2023-02-14T04:20:03.757Z,4.77
2023-02-14T04:22:36.692Z,5.00
2023-02-14T04:25:09.666Z,4.00
2023-02-14T04:27:42.642Z,4.13
2023-02-14T04:30:17.870Z,4.13
2023-02-14T04:32:50.951Z,4.70
2023-02-14T04:35:23.889Z,4.63
2023-02-14T04:37:56.844Z,4.67
2023-02-14T04:40:29.822Z,5.40
2023-02-14T04:43:04.495Z,5.33
2023-02-14T04:45:37.407Z,4.93
2023-02-14T04:48:10.620Z,4.97
2023-02-14T04:50:43.544Z,4.87
2023-02-14T04:53:19.194Z,5.10
2023-02-14T04:55:52.135Z,5.20
2023-02-14T04:58:25.231Z,4.83
2023-02-14T05:00:58.756Z,5.53
2023-02-14T05:03:31.838Z,5.10
2023-02-14T05:06:04.898Z,4.50
2023-02-14T05:08:37.850Z,4.13
2023-02-14T05:11:10.812Z,4.13
2023-02-14T05:13:43.727Z,4.70
2023-02-14T05:16:16.773Z,5.70
2023-02-14T05:18:49.760Z,4.87
2023-02-14T05:21:22.720Z,4.90
2023-02-14T05:23:55.710Z,4.83
2023-02-14T05:26:28.856Z,4.67
2023-02-14T05:29:01.941Z,4.83
2023-02-14T05:31:35.044Z,5.17
2023-02-14T05:34:08.210Z,4.90
2023-02-14T05:36:41.103Z,4.90
2023-02-14T05:39:14.623Z,5.60
2023-02-14T05:41:47.521Z,5.07
2023-02-14T05:44:20.656Z,5.17
2023-02-14T05:46:54.793Z,5.43
2023-02-14T05:49:27.824Z,4.47
2023-02-14T05:52:00.731Z,4.73
2023-02-14T05:54:33.743Z,5.00
2023-02-14T05:57:06.710Z,5.20
2023-02-14T05:59:39.698Z,5.77
2023-02-14T06:02:14.042Z,6.00
2023-02-14T06:04:47.123Z,5.33
2023-02-14T06:07:20.199Z,5.17
2023-02-14T06:09:53.237Z,5.17
2023-02-14T06:12:26.150Z,5.03
2023-02-14T06:14:59.057Z,4.47
2023-02-14T06:17:31.927Z,5.17
2023-02-14T06:20:05.066Z,5.23
2023-02-14T06:22:41.128Z,5.43
2023-02-14T06:25:14.269Z,5.73
2023-02-14T06:27:49.275Z,5.67
2023-02-14T06:30:22.538Z,4.90
2023-02-14T06:32:55.786Z,5.33
2023-02-14T06:35:29.173Z,5.47
2023-02-14T06:38:02.149Z,5.13
2023-02-14T06:40:35.148Z,5.17
2023-02-14T06:43:08.115Z,5.20
2023-02-14T06:45:43.612Z,4.67
2023-02-14T06:48:16.608Z,5.13
2023-02-14T06:50:49.714Z,5.00
2023-02-14T06:53:22.951Z,7.32
2023-02-14T06:55:56.458Z,6.30
2023-02-14T06:58:29.434Z,6.00
2023-02-14T07:01:02.693Z,5.13
2023-02-14T07:03:35.825Z,5.90
2023-02-14T07:06:08.948Z,5.37
2023-02-14T07:08:42.340Z,4.70
2023-02-14T07:11:15.367Z,4.40
2023-02-14T07:13:49.548Z,4.67
2023-02-14T07:16:22.537Z,5.27
2023-02-14T07:18:55.437Z,5.43
2023-02-14T07:21:28.354Z,5.03
2023-02-14T07:24:01.253Z,4.87
2023-02-14T07:26:34.224Z,4.63
2023-02-14T07:29:07.202Z,4.73
2023-02-14T07:31:40.295Z,4.47
2023-02-14T07:34:13.448Z,4.90
2023-02-14T07:36:46.733Z,4.63
2023-02-14T07:39:19.729Z,5.27
2023-02-14T07:41:52.673Z,6.10
2023-02-14T07:44:25.966Z,6.07
2023-02-14T07:46:58.931Z,6.00
2023-02-14T07:49:32.058Z,6.33
2023-02-14T07:52:05.474Z,5.83
2023-02-14T07:54:41.314Z,6.10
2023-02-14T07:57:14.306Z,7.73
2023-02-14T07:59:47.225Z,6.73
2023-02-14T08:02:20.927Z,6.33
2023-02-14T08:04:53.922Z,5.80
2023-02-14T08:07:26.916Z,6.03
2023-02-14T08:09:59.794Z,6.30
2023-02-14T08:12:51.363Z,7.10
2023-02-14T08:15:43.078Z,6.97
2023-02-14T08:18:17.438Z,7.07
2023-02-14T08:20:50.382Z,7.20
2023-02-14T08:23:23.916Z,6.80
2023-02-14T08:25:57.294Z,8.10
2023-02-14T08:28:32.229Z,8.50
2023-02-14T08:31:05.668Z,7.87
2023-02-14T08:33:38.854Z,7.53
2023-02-14T08:36:11.837Z,8.27
2023-02-14T08:38:47.503Z,8.00
2023-02-14T08:41:20.500Z,7.77
2023-02-14T08:43:53.583Z,7.80
2023-02-14T08:46:26.905Z,7.83
2023-02-14T08:49:00.042Z,8.50
2023-02-14T08:51:32.991Z,7.47
2023-02-14T08:54:06.049Z,8.57
2023-02-14T08:56:40.529Z,8.07
2023-02-14T08:59:13.511Z,8.43
2023-02-14T09:01:46.445Z,8.40
2023-02-14T09:04:19.441Z,9.13
2023-02-14T09:06:52.443Z,9.37
2023-02-14T09:09:25.420Z,9.20
2023-02-14T09:11:58.367Z,8.53
2023-02-14T09:14:32.192Z,10.07
2023-02-14T09:17:05.791Z,9.00
2023-02-14T09:19:38.865Z,8.97
2023-02-14T09:22:12.279Z,9.97
2023-02-14T09:24:45.461Z,9.00
2023-02-14T09:27:18.379Z,9.33
2023-02-14T09:29:51.541Z,8.97
2023-02-14T09:32:26.288Z,10.17
2023-02-14T09:34:59.317Z,9.80
2023-02-14T09:37:50.812Z,10.17
2023-02-14T09:40:24.019Z,9.23
2023-02-14T09:43:02.058Z,8.47
2023-02-14T09:45:35.971Z,9.67
2023-02-14T09:48:13.399Z,10.13
2023-02-14T09:50:52.797Z,9.53
2023-02-14T09:53:30.153Z,10.40
2023-02-14T09:56:12.716Z,10.10
2023-02-14T09:58:48.683Z,8.63
2023-02-14T10:01:34.081Z,10.10
2023-02-14T10:04:22.370Z,9.67
2023-02-14T10:06:55.336Z,8.30
2023-02-14T10:09:47.231Z,10.67
2023-02-14T10:12:28.651Z,9.93
2023-02-14T10:15:02.784Z,9.73
2023-02-14T10:17:35.701Z,10.17
2023-02-14T10:20:18.071Z,10.70
2023-02-14T10:22:54.400Z,10.33
2023-02-14T10:25:29.623Z,10.90
2023-02-14T10:28:02.628Z,9.87
2023-02-14T10:30:39.422Z,10.47
2023-02-14T10:33:19.453Z,9.53
2023-02-14T10:35:55.890Z,13.00
2023-02-14T10:38:28.911Z,11.57
2023-02-14T10:41:17.036Z,9.47
2023-02-14T10:43:58.046Z,10.30
2023-02-14T10:46:36.997Z,9.83
2023-02-14T10:49:28.793Z,9.40
2023-02-14T10:52:20.634Z,10.10
2023-02-14T10:54:55.914Z,9.20
2023-02-14T10:57:32.351Z,10.17
2023-02-14T11:00:10.848Z,9.60
2023-02-14T11:02:45.613Z,10.20
2023-02-14T11:05:28.240Z,10.67
2023-02-14T11:08:47.913Z,10.47
2023-02-14T11:11:39.521Z,10.20
2023-02-14T11:14:36.557Z,9.00
2023-02-14T11:17:40.666Z,10.60
2023-02-14T11:20:19.268Z,8.60
2023-02-14T11:23:01.001Z,10.27
2023-02-14T11:25:36.432Z,8.40
2023-02-14T11:28:16.861Z,8.70
2023-02-14T11:30:51.148Z,9.60
2023-02-14T11:33:30.312Z,10.10
2023-02-14T11:36:05.064Z,8.17
2023-02-14T11:38:39.855Z,9.70
2023-02-14T11:41:14.731Z,9.43
2023-02-14T11:43:49.126Z,10.47
2023-02-14T11:46:23.885Z,10.90
2023-02-14T11:48:57.041Z,9.60
2023-02-14T11:51:32.295Z,9.43
2023-02-14T11:54:06.198Z,10.03
2023-02-14T11:56:56.352Z,10.77
2023-02-14T11:59:31.873Z,10.23
2023-02-14T12:02:19.366Z,10.90
2023-02-14T12:04:54.633Z,10.07
2023-02-14T12:07:32.895Z,10.10
2023-02-14T12:10:08.125Z,9.60
2023-02-14T12:12:48.852Z,10.80
2023-02-14T12:15:26.354Z,10.13
2023-02-14T12:18:21.601Z,9.57
2023-02-14T12:21:00.599Z,9.27
2023-02-14T12:23:42.777Z,9.10
2023-02-14T12:26:28.360Z,9.53
2023-02-14T12:29:06.689Z,9.13
2023-02-14T12:31:40.148Z,9.60
2023-02-14T12:34:13.809Z,8.65
2023-02-14T12:36:58.726Z,10.70
2023-02-14T12:39:49.516Z,9.20
2023-02-14T12:42:32.838Z,9.52
2023-02-14T12:45:05.991Z,9.10
2023-02-14T12:47:50.343Z,8.93
2023-02-14T12:50:35.553Z,9.52
2023-02-14T12:53:08.433Z,8.60
2023-02-14T12:55:58.163Z,8.27
2023-02-14T12:58:37.600Z,9.43
2023-02-14T13:01:29.217Z,8.63
2023-02-14T13:04:23.232Z,7.93
2023-02-14T13:07:14.732Z,8.65
2023-02-14T13:09:50.715Z,8.23
2023-02-14T13:12:23.817Z,8.77
2023-02-14T13:15:15.389Z,8.25
2023-02-14T13:17:51.570Z,8.35
2023-02-14T13:20:28.981Z,8.32
2023-02-14T13:23:04.786Z,8.60
2023-02-14T13:25:41.898Z,8.57
2023-02-14T13:28:15.660Z,8.93
2023-02-14T13:30:48.768Z,8.82
2023-02-14T13:33:33.918Z,9.05
2023-02-14T13:36:22.979Z,8.73
2023-02-14T13:38:57.369Z,9.20
2023-02-14T13:41:30.565Z,8.70
2023-02-14T13:44:05.301Z,8.80
2023-02-14T13:46:48.436Z,8.27
2023-02-14T13:49:21.789Z,8.80
2023-02-14T13:51:56.078Z,9.77
2023-02-14T13:54:35.651Z,8.10
2023-02-14T13:57:25.896Z,8.57
2023-02-14T14:00:17.750Z,9.17
2023-02-14T14:02:51.729Z,8.63
2023-02-14T14:05:32.840Z,7.70
2023-02-14T14:08:21.166Z,8.37
2023-02-14T14:10:59.419Z,9.07
2023-02-14T14:13:41.126Z,8.63
2023-02-14T14:16:23.030Z,8.87
2023-02-14T14:18:56.732Z,8.07
2023-02-14T14:21:45.023Z,9.36
2023-02-14T14:24:17.975Z,8.47
2023-02-14T14:27:00.319Z,8.57
2023-02-14T14:29:35.888Z,8.63
2023-02-14T14:32:18.050Z,7.97
2023-02-14T14:34:52.593Z,9.65
2023-02-14T14:37:28.426Z,8.50
2023-02-14T14:40:02.540Z,8.97
2023-02-14T14:42:37.403Z,8.17
2023-02-14T14:45:20.730Z,8.57
2023-02-14T14:47:54.859Z,8.53
2023-02-14T14:50:32.341Z,8.57
2023-02-14T14:53:12.045Z,9.43
2023-02-14T14:55:51.755Z,9.07
2023-02-14T14:58:36.394Z,9.43
2023-02-14T15:01:13.139Z,9.00
2023-02-14T15:03:47.482Z,8.67
2023-02-14T15:06:21.243Z,9.03
2023-02-14T15:08:54.769Z,9.03
2023-02-14T15:11:47.980Z,10.73
2023-02-14T15:14:23.044Z,15.77
2023-02-14T15:16:59.412Z,9.53
2023-02-14T15:19:36.992Z,10.23
2023-02-14T15:22:21.123Z,9.10
2023-02-14T15:24:58.176Z,10.13
2023-02-14T15:27:32.361Z,9.57
2023-02-14T15:30:08.794Z,9.27
2023-02-14T15:32:41.878Z,8.80
2023-02-14T15:35:16.186Z,9.83
2023-02-14T15:37:49.465Z,8.63
2023-02-14T15:40:24.613Z,8.90
2023-02-14T15:42:58.971Z,9.60
2023-02-14T15:45:32.203Z,8.87
2023-02-14T15:48:06.962Z,10.00
2023-02-14T15:50:46.079Z,9.57
2023-02-14T15:53:37.113Z,9.40
2023-02-14T15:56:13.725Z,9.40
2023-02-14T15:58:47.317Z,9.93
2023-02-14T16:01:23.464Z,9.10
2023-02-14T16:03:58.016Z,9.83
2023-02-14T16:06:44.292Z,9.20
2023-02-14T16:09:26.307Z,9.27
2023-02-14T16:11:59.302Z,9.90
2023-02-14T16:14:35.015Z,9.63
2023-02-14T16:17:12.175Z,10.00
2023-02-14T16:19:46.433Z,9.60
2023-02-14T16:22:31.924Z,9.03
2023-02-14T16:25:04.935Z,9.63
2023-02-14T16:27:37.840Z,10.30
2023-02-14T16:30:18.334Z,10.20
2023-02-14T16:32:53.635Z,10.47
2023-02-14T16:35:31.307Z,10.95
2023-02-14T16:38:04.179Z,9.87
2023-02-14T16:40:37.180Z,9.00
2023-02-14T16:43:13.013Z,9.73
2023-02-14T16:45:46.098Z,9.73
2023-02-14T16:48:19.095Z,9.97
2023-02-14T16:50:52.402Z,9.10
2023-02-14T16:53:27.841Z,10.33
2023-02-14T16:56:00.968Z,9.70
2023-02-14T16:58:36.228Z,8.87
2023-02-14T17:01:09.124Z,10.03
2023-02-14T17:03:45.067Z,9.20
2023-02-14T17:06:20.890Z,9.83
2023-02-14T17:08:54.837Z,9.53
2023-02-14T17:11:28.745Z,9.00
2023-02-14T17:14:01.846Z,8.57
2023-02-14T17:16:35.037Z,9.27
2023-02-14T17:19:08.040Z,9.17
2023-02-14T17:21:41.435Z,8.83
2023-02-14T17:24:15.373Z,8.63
2023-02-14T17:26:57.129Z,7.90
2023-02-14T17:29:30.178Z,7.50
2023-02-14T17:32:03.245Z,7.57
2023-02-14T17:34:36.293Z,8.57
2023-02-14T17:37:09.422Z,7.33
2023-02-14T17:39:42.445Z,8.03
2023-02-14T17:42:15.322Z,7.30
2023-02-14T17:44:48.210Z,7.77
2023-02-14T17:47:21.154Z,7.90
2023-02-14T17:49:54.189Z,8.47
2023-02-14T17:52:29.650Z,7.17
2023-02-14T17:55:02.702Z,8.70
2023-02-14T17:57:36.085Z,8.10
2023-02-14T18:00:11.658Z,8.53
2023-02-14T18:02:48.775Z,8.20
2023-02-14T18:05:21.759Z,8.27
2023-02-14T18:07:54.630Z,7.80
2023-02-14T18:10:27.632Z,8.33
2023-02-14T18:13:00.547Z,8.33
2023-02-14T18:15:33.782Z,9.37
2023-02-14T18:18:06.709Z,9.13
2023-02-14T18:20:39.594Z,9.37
2023-02-14T18:23:12.639Z,8.30
2023-02-14T18:25:50.173Z,7.83
2023-02-14T18:28:24.591Z,8.97
2023-02-14T18:31:03.015Z,7.70
2023-02-14T18:33:36.724Z,7.70
2023-02-14T18:36:14.441Z,7.33
2023-02-14T18:38:48.498Z,8.07
2023-02-14T18:41:21.677Z,10.57
2023-02-14T18:43:55.159Z,8.07
2023-02-14T18:46:29.884Z,10.33
2023-02-14T18:49:04.204Z,12.50
2023-02-14T18:51:39.441Z,9.57
2023-02-14T18:54:12.464Z,7.87
2023-02-14T18:56:47.122Z,8.60
2023-02-14T18:59:20.106Z,8.30
2023-02-14T19:01:53.453Z,8.27
2023-02-14T19:04:26.365Z,7.20
2023-02-14T19:06:59.588Z,8.57
2023-02-14T19:09:38.944Z,7.93
2023-02-14T19:12:12.444Z,8.63
2023-02-14T19:14:45.933Z,7.60
2023-02-14T19:17:19.142Z,7.47
2023-02-14T19:19:53.189Z,7.57
2023-02-14T19:22:26.235Z,7.50
2023-02-14T19:24:59.211Z,6.83
2023-02-14T19:27:34.209Z,7.43
2023-02-14T19:30:10.388Z,12.73
2023-02-14T19:32:45.771Z,8.80
2023-02-14T19:35:19.921Z,8.83
2023-02-14T19:38:05.157Z,7.83
2023-02-14T19:40:44.272Z,7.17
2023-02-14T19:43:18.011Z,8.53
2023-02-14T19:45:52.116Z,7.53
2023-02-14T19:48:25.028Z,7.57
2023-02-14T19:51:00.682Z,7.03
2023-02-14T19:53:36.996Z,7.87
2023-02-14T19:56:10.134Z,8.27
2023-02-14T19:58:43.023Z,6.60
2023-02-14T20:01:32.343Z,7.77
2023-02-14T20:04:16.283Z,7.00
2023-02-14T20:06:49.492Z,8.60
2023-02-14T20:09:23.080Z,7.90
2023-02-14T20:11:57.780Z,7.70
2023-02-14T20:14:38.443Z,7.83
2023-02-14T20:17:20.316Z,6.53
2023-02-14T20:19:53.550Z,6.70
2023-02-14T20:22:30.698Z,6.73
2023-02-14T20:25:06.030Z,7.40
2023-02-14T20:27:39.903Z,6.70
2023-02-14T20:30:15.275Z,6.90
2023-02-14T20:32:50.809Z,9.75
2023-02-14T20:35:24.570Z,7.70
2023-02-14T20:37:57.369Z,8.20
2023-02-14T20:40:30.412Z,8.90
2023-02-14T20:43:03.710Z,8.70
2023-02-14T20:45:38.512Z,9.47
2023-02-14T20:48:12.632Z,8.77
2023-02-14T20:50:48.106Z,9.93
2023-02-14T20:53:22.045Z,12.93
2023-02-14T20:55:54.743Z,10.37
2023-02-14T20:58:30.618Z,9.13
2023-02-14T21:01:30.157Z,8.50
2023-02-14T21:04:03.134Z,7.30
2023-02-14T21:06:39.577Z,8.50
2023-02-14T21:09:12.604Z,7.60
2023-02-14T21:11:45.395Z,8.27
2023-02-14T21:14:18.143Z,7.60
2023-02-14T21:16:51.257Z,8.67
2023-02-14T21:19:23.959Z,7.40
2023-02-14T21:21:56.694Z,7.50
2023-02-14T21:24:29.567Z,7.77
2023-02-14T21:27:02.287Z,6.83
2023-02-14T21:29:34.928Z,6.73
2023-02-14T21:32:08.466Z,6.50
2023-02-14T21:34:41.264Z,7.23
2023-02-14T21:37:14.056Z,6.97
2023-02-14T21:39:46.736Z,7.23
2023-02-14T21:42:21.146Z,7.30
2023-02-14T21:45:12.320Z,8.50
2023-02-14T21:48:04.943Z,8.17
2023-02-14T21:50:38.053Z,7.60
2023-02-14T21:53:10.748Z,8.53
2023-02-14T21:55:45.823Z,8.83
2023-02-14T21:58:18.516Z,8.07
2023-02-14T22:00:51.223Z,9.10
2023-02-14T22:03:23.935Z,9.30
2023-02-14T22:06:07.391Z,9.33
2023-02-14T22:08:40.467Z,9.00
2023-02-14T22:11:15.173Z,8.60
2023-02-14T22:13:47.870Z,8.47
2023-02-14T22:16:22.779Z,9.17
2023-02-14T22:18:55.592Z,7.67
2023-02-14T22:21:30.089Z,7.73
2023-02-14T22:24:02.856Z,7.60
2023-02-14T22:26:40.604Z,7.30
2023-02-14T22:29:13.881Z,6.87
2023-02-14T22:31:46.980Z,7.47
2023-02-14T22:34:19.953Z,9.33
2023-02-14T22:36:52.862Z,8.53
2023-02-14T22:39:25.854Z,8.27
2023-02-14T22:42:01.609Z,9.97
2023-02-14T22:44:35.279Z,9.03
2023-02-14T22:47:08.248Z,8.53
2023-02-14T22:49:41.995Z,10.10
2023-02-14T22:52:15.449Z,8.33
2023-02-14T22:54:48.915Z,8.40
2023-02-14T22:57:21.983Z,7.97
2023-02-14T22:59:54.861Z,8.50
2023-02-14T23:02:27.829Z,9.30
2023-02-14T23:05:01.775Z,9.87
2023-02-14T23:07:36.110Z,10.03
2023-02-14T23:10:09.536Z,12.93
2023-02-14T23:13:01.129Z,10.70
2023-02-14T23:15:52.922Z,9.13
2023-02-14T23:18:44.476Z,8.40
2023-02-14T23:21:36.285Z,8.27
2023-02-14T23:24:08.808Z,8.30
2023-02-14T23:26:41.500Z,8.37
2023-02-14T23:29:14.310Z,8.13
2023-02-14T23:31:47.132Z,9.00
2023-02-14T23:34:20.376Z,7.97
2023-02-14T23:36:53.302Z,8.37
2023-02-14T23:39:26.094Z,7.93
2023-02-14T23:42:00.876Z,8.50
2023-02-14T23:44:34.690Z,8.13
2023-02-14T23:47:10.067Z,8.00
2023-02-14T23:49:47.299Z,7.20
2023-02-14T23:52:27.119Z,8.13
2023-02-14T23:55:01.747Z,7.27
2023-02-14T23:57:34.951Z,7.83
